Time;durP1;ratioP1;P1;durP2;ratioP2;P2;SDS_P1;SDS_P2;PMS_P1;PMS_P2;Temp;Humidity;BMP_temperature;BMP_pressure;BME280_temperature;BME280_humidity;BME280_pressure;Samples;Min_cycle;Max_cycle;Signal;HPM_P1;HPM_P2
2022/10/09 00:01:13;;;;;;;;;9.75;9.75;;;;;;;;4835525;29;11506;-81
2022/10/09 00:03:44;;;;;;;;;15.50;12.25;;;;;;;;4831369;29;11590;-81
2022/10/09 00:06:13;;;;;;;;;12.25;12.25;;;;;;;;4835781;29;11609;-81
2022/10/09 00:08:42;;;;;;;;;14.25;11.75;;;;;;;;4818177;29;11609;-81
2022/10/09 00:11:13;;;;;;;;;10.25;10.25;;;;;;;;4822509;29;11710;-80
2022/10/09 00:13:40;;;;;;;;;11.00;11.00;;;;;;;;4842117;29;11702;-81
2022/10/09 00:16:09;;;;;;;;;10.25;9.00;;;;;;;;4834350;29;11609;-81
2022/10/09 00:18:37;;;;;;;;;8.00;8.00;;;;;;;;4826139;29;11556;-81
2022/10/09 00:21:05;;;;;;;;;10.50;10.50;;;;;;;;4835258;29;11570;-81
2022/10/09 00:23:32;;;;;;;;;8.25;8.25;;;;;;;;4836271;29;11540;-82
2022/10/09 00:26:01;;;;;;;;;12.75;11.50;;;;;;;;4805013;29;11582;-82
2022/10/09 00:28:31;;;;;;;;;13.00;9.00;;;;;;;;4815924;29;11674;-82
2022/10/09 00:30:58;;;;;;;;;11.50;8.50;;;;;;;;4820424;29;11537;-82
2022/10/09 00:33:25;;;;;;;;;10.00;9.25;;;;;;;;4838781;29;11624;-82
2022/10/09 00:35:53;;;;;;;;;8.50;8.50;;;;;;;;4816927;29;11601;-81
2022/10/09 00:38:20;;;;;;;;;11.25;8.75;;;;;;;;4838919;29;11584;-81
2022/10/09 00:40:47;;;;;;;;;8.00;8.00;;;;;;;;4848480;29;11569;-81
2022/10/09 00:43:16;;;;;;;;;10.00;10.00;;;;;;;;4845318;29;11655;-81
2022/10/09 00:45:50;;;;;;;;;9.50;9.50;;;;;;;;4837682;29;11591;-80
2022/10/09 00:48:17;;;;;;;;;11.00;11.00;;;;;;;;4825002;29;11525;-81
2022/10/09 00:50:46;;;;;;;;;12.00;7.75;;;;;;;;4835916;29;11677;-81
2022/10/09 00:53:17;;;;;;;;;14.00;11.50;;;;;;;;4838659;29;11560;-82
2022/10/09 00:55:44;;;;;;;;;12.25;9.75;;;;;;;;4847297;29;11595;-80
2022/10/09 00:58:13;;;;;;;;;8.00;8.00;;;;;;;;4828428;29;11574;-80
2022/10/09 01:00:40;;;;;;;;;11.75;11.75;;;;;;;;4837805;29;11538;-80
2022/10/09 01:03:09;;;;;;;;;11.00;8.75;;;;;;;;4836062;29;12412;-80
2022/10/09 01:05:43;;;;;;;;;11.50;11.50;;;;;;;;4837065;29;11565;-81
2022/10/09 01:08:15;;;;;;;;;11.00;11.00;;;;;;;;4839659;29;11601;-81
2022/10/09 01:10:49;;;;;;;;;10.75;7.25;;;;;;;;4837594;29;11592;-81
2022/10/09 01:13:23;;;;;;;;;7.00;7.00;;;;;;;;4826668;29;11597;-82
2022/10/09 01:15:55;;;;;;;;;11.75;9.75;;;;;;;;4838863;29;11576;-83
2022/10/09 01:18:31;;;;;;;;;9.25;7.75;;;;;;;;4828339;29;11636;-83
2022/10/09 01:21:00;;;;;;;;;9.00;9.00;;;;;;;;4835766;29;11601;-82
2022/10/09 01:24:02;;;;;;;;;11.00;11.00;;;;;;;;4837474;29;11591;-82
2022/10/09 01:26:56;;;;;;;;;10.75;8.75;;;;;;;;4838755;29;11595;-82
2022/10/09 01:29:27;;;;;;;;;11.25;10.00;;;;;;;;4831435;29;11552;-83
2022/10/09 01:31:55;;;;;;;;;6.00;6.00;;;;;;;;4839291;29;11494;-82
2022/10/09 01:34:24;;;;;;;;;8.50;8.50;;;;;;;;4837700;29;11608;-82
2022/10/09 01:36:52;;;;;;;;;10.00;10.00;;;;;;;;4846290;29;11598;-82
2022/10/09 01:39:22;;;;;;;;;15.00;13.25;;;;;;;;4844262;29;11603;-83
2022/10/09 01:41:51;;;;;;;;;11.00;11.00;;;;;;;;4821027;29;11592;-83
2022/10/09 01:44:22;;;;;;;;;11.00;11.00;;;;;;;;4836824;29;11621;-82
2022/10/09 01:46:49;;;;;;;;;12.00;11.00;;;;;;;;4836022;29;11594;-82
2022/10/09 01:49:36;;;;;;;;;12.50;12.50;;;;;;;;4828815;29;11581;-82
2022/10/09 01:52:08;;;;;;;;;8.00;8.00;;;;;;;;4831218;29;11141;-82
2022/10/09 01:54:40;;;;;;;;;14.25;11.00;;;;;;;;4844224;29;11570;-82
2022/10/09 01:57:09;;;;;;;;;9.50;8.00;;;;;;;;4844481;29;11591;-81
2022/10/09 01:59:42;;;;;;;;;13.75;9.00;;;;;;;;4846421;29;11557;-81
2022/10/09 02:02:09;;;;;;;;;10.00;7.50;;;;;;;;4837623;29;11558;-81
2022/10/09 02:04:40;;;;;;;;;10.00;10.00;;;;;;;;4821135;29;11524;-81
2022/10/09 02:07:07;;;;;;;;;10.75;10.75;;;;;;;;4832890;29;11611;-81
2022/10/09 02:09:35;;;;;;;;;7.25;7.25;;;;;;;;4834278;29;11591;-81
2022/10/09 02:12:06;;;;;;;;;11.00;8.00;;;;;;;;4836351;29;11134;-81
2022/10/09 02:14:34;;;;;;;;;8.00;8.00;;;;;;;;4835134;29;11601;-81
2022/10/09 02:20:03;;;;;;;;;8.00;8.00;;;;;;;;4827554;29;11591;-82
2022/10/09 02:22:33;;;;;;;;;9.50;9.50;;;;;;;;4844346;29;11578;-82
2022/10/09 02:25:03;;;;;;;;;11.50;10.25;;;;;;;;4850416;29;11663;-82
2022/10/09 02:27:31;;;;;;;;;15.75;15.00;;;;;;;;4834490;29;11763;-80
2022/10/09 02:29:59;;;;;;;;;12.00;12.00;;;;;;;;4833341;29;11597;-81
2022/10/09 02:32:28;;;;;;;;;19.00;19.00;;;;;;;;4837268;29;11571;-82
2022/10/09 02:34:55;;;;;;;;;19.50;18.00;;;;;;;;4831625;29;11677;-81
2022/10/09 02:37:23;;;;;;;;;29.00;26.00;;;;;;;;4832023;29;11598;-82
2022/10/09 02:39:50;;;;;;;;;32.25;30.25;;;;;;;;4841944;29;11816;-81
2022/10/09 02:42:17;;;;;;;;;32.75;30.75;;;;;;;;4832144;29;11606;-81
2022/10/09 02:44:44;;;;;;;;;44.25;38.00;;;;;;;;4818720;29;11747;-81
2022/10/09 02:47:12;;;;;;;;;35.75;32.75;;;;;;;;4844810;29;12358;-81
2022/10/09 02:49:40;;;;;;;;;27.50;27.50;;;;;;;;4820690;29;12439;-81
2022/10/09 02:52:08;;;;;;;;;20.50;20.50;;;;;;;;4816554;29;11602;-81
2022/10/09 02:54:35;;;;;;;;;30.75;25.00;;;;;;;;4843955;29;11608;-81
2022/10/09 02:57:03;;;;;;;;;27.75;25.00;;;;;;;;4837226;29;11625;-81
2022/10/09 02:59:31;;;;;;;;;25.75;22.50;;;;;;;;4835449;29;12387;-80
2022/10/09 03:01:58;;;;;;;;;21.25;21.25;;;;;;;;4835578;29;12409;-81
2022/10/09 03:04:25;;;;;;;;;24.00;24.00;;;;;;;;4835280;29;11636;-81
2022/10/09 03:06:54;;;;;;;;;21.75;21.00;;;;;;;;4820956;29;11598;-82
2022/10/09 03:09:21;;;;;;;;;22.75;22.75;;;;;;;;4842549;29;11727;-82
2022/10/09 03:11:49;;;;;;;;;19.00;19.00;;;;;;;;4835861;29;11621;-80
2022/10/09 03:14:16;;;;;;;;;20.25;18.50;;;;;;;;4843227;29;11595;-80
2022/10/09 03:16:43;;;;;;;;;15.75;15.75;;;;;;;;4836064;29;11606;-81
2022/10/09 03:19:11;;;;;;;;;19.50;18.25;;;;;;;;4813946;29;11586;-81
2022/10/09 03:21:38;;;;;;;;;19.75;17.75;;;;;;;;4834537;29;11715;-81
2022/10/09 03:24:07;;;;;;;;;19.25;18.00;;;;;;;;4835540;29;12405;-81
2022/10/09 03:26:34;;;;;;;;;17.00;16.00;;;;;;;;4847897;29;11627;-80
2022/10/09 03:29:02;;;;;;;;;17.50;16.25;;;;;;;;4844222;29;11659;-81
2022/10/09 03:31:29;;;;;;;;;19.00;12.75;;;;;;;;4834513;29;11563;-81
2022/10/09 03:33:57;;;;;;;;;12.50;12.50;;;;;;;;4822076;29;11598;-81
2022/10/09 03:36:25;;;;;;;;;20.50;15.50;;;;;;;;4840161;29;11582;-81
2022/10/09 03:38:52;;;;;;;;;14.75;13.75;;;;;;;;4836713;29;11587;-81
2022/10/09 03:41:21;;;;;;;;;11.75;11.75;;;;;;;;4841701;29;11593;-81
2022/10/09 03:43:48;;;;;;;;;13.50;13.50;;;;;;;;4831125;29;11596;-80
2022/10/09 03:46:16;;;;;;;;;16.50;14.50;;;;;;;;4830115;29;11945;-81
2022/10/09 03:48:43;;;;;;;;;15.75;12.75;;;;;;;;4834742;29;12385;-82
2022/10/09 03:51:10;;;;;;;;;11.25;9.00;;;;;;;;4830031;29;11587;-81
2022/10/09 03:53:37;;;;;;;;;11.00;8.50;;;;;;;;4842195;29;11554;-81
2022/10/09 03:56:05;;;;;;;;;14.50;12.00;;;;;;;;4840242;29;12387;-82
2022/10/09 03:58:34;;;;;;;;;11.00;11.00;;;;;;;;4841963;29;11608;-81
2022/10/09 04:01:01;;;;;;;;;11.75;11.75;;;;;;;;4832355;29;11520;-80
2022/10/09 04:03:28;;;;;;;;;12.00;12.00;;;;;;;;4832634;29;11608;-80
2022/10/09 04:05:56;;;;;;;;;11.00;11.00;;;;;;;;4817138;29;11589;-80
2022/10/09 04:08:23;;;;;;;;;12.75;10.00;;;;;;;;4835565;29;11642;-80
2022/10/09 04:10:57;;;;;;;;;18.25;10.75;;;;;;;;4832258;29;11591;-80
2022/10/09 04:13:24;;;;;;;;;13.25;11.25;;;;;;;;4844300;29;11619;-79
2022/10/09 04:15:53;;;;;;;;;14.75;10.50;;;;;;;;4821893;29;11587;-80
2022/10/09 04:18:21;;;;;;;;;12.75;11.75;;;;;;;;4825729;29;11625;-80
2022/10/09 04:20:50;;;;;;;;;11.75;10.00;;;;;;;;4834760;29;11619;-79
2022/10/09 04:23:17;;;;;;;;;12.25;12.25;;;;;;;;4832037;29;11643;-79
2022/10/09 04:25:44;;;;;;;;;18.00;12.50;;;;;;;;4837624;29;11607;-78
2022/10/09 04:28:11;;;;;;;;;12.50;12.00;;;;;;;;4839406;29;11713;-78
2022/10/09 04:30:39;;;;;;;;;14.50;14.50;;;;;;;;4840631;29;12339;-80
2022/10/09 04:33:07;;;;;;;;;11.00;10.50;;;;;;;;4831741;29;11602;-79
2022/10/09 04:35:35;;;;;;;;;12.00;11.00;;;;;;;;4831970;29;11777;-80
2022/10/09 04:38:02;;;;;;;;;13.75;13.00;;;;;;;;4816442;29;11603;-81
2022/10/09 04:40:29;;;;;;;;;13.00;12.00;;;;;;;;4837721;29;11734;-79
2022/10/09 04:42:57;;;;;;;;;13.75;12.25;;;;;;;;4832438;29;11603;-79
2022/10/09 04:45:24;;;;;;;;;10.75;10.75;;;;;;;;4831432;29;11637;-80
2022/10/09 04:48:12;;;;;;;;;12.25;12.00;;;;;;;;4841924;29;11634;-80
2022/10/09 04:50:39;;;;;;;;;12.25;12.25;;;;;;;;4825559;29;11604;-80
2022/10/09 04:53:08;;;;;;;;;10.00;10.00;;;;;;;;4839058;29;11596;-79
2022/10/09 04:55:39;;;;;;;;;9.50;9.50;;;;;;;;4837460;29;11638;-80
2022/10/09 04:58:07;;;;;;;;;19.00;12.25;;;;;;;;4817244;29;11611;-80
2022/10/09 05:00:35;;;;;;;;;14.25;14.25;;;;;;;;4829203;29;11538;-79
2022/10/09 05:03:02;;;;;;;;;14.50;14.25;;;;;;;;4814693;29;11657;-79
2022/10/09 05:05:32;;;;;;;;;15.75;13.50;;;;;;;;4831917;29;11586;-77
2022/10/09 05:07:59;;;;;;;;;14.75;14.75;;;;;;;;4830941;29;11577;-78
2022/10/09 05:10:27;;;;;;;;;19.75;15.25;;;;;;;;4833653;29;11753;-79
2022/10/09 05:12:55;;;;;;;;;20.50;17.25;;;;;;;;4841890;29;11621;-79
2022/10/09 05:15:22;;;;;;;;;18.00;18.00;;;;;;;;4821512;29;11622;-80
2022/10/09 05:17:49;;;;;;;;;20.50;19.75;;;;;;;;4830982;29;12390;-80
2022/10/09 05:20:17;;;;;;;;;23.25;23.25;;;;;;;;4822515;29;11604;-79
2022/10/09 05:22:46;;;;;;;;;18.75;18.00;;;;;;;;4832740;29;12494;-80
2022/10/09 05:25:13;;;;;;;;;22.00;20.50;;;;;;;;4834368;29;11737;-80
2022/10/09 05:27:40;;;;;;;;;23.50;19.25;;;;;;;;4840216;29;11609;-81
2022/10/09 05:30:08;;;;;;;;;23.75;19.50;;;;;;;;4840059;29;11600;-79
2022/10/09 05:32:36;;;;;;;;;16.00;16.00;;;;;;;;4838286;29;11619;-80
2022/10/09 05:35:03;;;;;;;;;24.00;22.75;;;;;;;;4839783;29;11601;-80
2022/10/09 05:37:31;;;;;;;;;22.00;18.50;;;;;;;;4833891;29;11718;-80
2022/10/09 05:39:59;;;;;;;;;23.00;23.00;;;;;;;;4844548;29;11598;-80
2022/10/09 05:42:26;;;;;;;;;24.50;19.50;;;;;;;;4837397;29;11626;-80
2022/10/09 05:44:54;;;;;;;;;17.25;17.25;;;;;;;;4839579;29;11611;-79
2022/10/09 05:47:21;;;;;;;;;24.75;19.75;;;;;;;;4834416;29;11639;-79
2022/10/09 05:49:48;;;;;;;;;24.75;21.50;;;;;;;;4833442;29;11628;-80
2022/10/09 05:52:16;;;;;;;;;17.25;17.25;;;;;;;;4837388;29;11636;-79
2022/10/09 05:54:43;;;;;;;;;14.50;14.50;;;;;;;;4834137;29;11732;-79
2022/10/09 05:57:12;;;;;;;;;24.25;21.00;;;;;;;;4827146;29;11606;-79
2022/10/09 05:59:39;;;;;;;;;22.50;22.50;;;;;;;;4846911;29;11594;-79
2022/10/09 06:02:06;;;;;;;;;21.25;20.75;;;;;;;;4835072;29;11563;-79
2022/10/09 06:04:34;;;;;;;;;18.00;15.00;;;;;;;;4835831;29;11693;-80
2022/10/09 06:07:01;;;;;;;;;16.25;16.25;;;;;;;;4834026;29;11603;-77
2022/10/09 06:09:29;;;;;;;;;16.50;15.25;;;;;;;;4834854;29;11665;-80
2022/10/09 06:11:56;;;;;;;;;19.75;16.75;;;;;;;;4848549;29;11610;-79
2022/10/09 06:14:25;;;;;;;;;22.00;22.00;;;;;;;;4834122;29;11585;-80
2022/10/09 06:16:52;;;;;;;;;20.25;19.00;;;;;;;;4844424;29;11598;-83
2022/10/09 06:19:20;;;;;;;;;19.25;19.00;;;;;;;;4822036;29;11767;-80
2022/10/09 06:21:48;;;;;;;;;15.00;14.50;;;;;;;;4823290;29;11757;-79
2022/10/09 06:24:19;;;;;;;;;18.00;16.25;;;;;;;;4842800;29;11685;-83
2022/10/09 06:26:47;;;;;;;;;20.25;18.50;;;;;;;;4834991;29;11748;-91
2022/10/09 06:29:14;;;;;;;;;21.25;19.50;;;;;;;;4834435;29;11609;-91
2022/10/09 06:31:43;;;;;;;;;18.50;15.50;;;;;;;;4837662;29;11552;-87
2022/10/09 06:34:10;;;;;;;;;21.50;20.00;;;;;;;;4834357;29;11633;-88
2022/10/09 06:36:37;;;;;;;;;19.00;15.00;;;;;;;;4838515;29;11649;-87
2022/10/09 06:39:06;;;;;;;;;15.75;15.75;;;;;;;;4833754;29;11606;-87
2022/10/09 06:41:34;;;;;;;;;16.50;16.50;;;;;;;;4823767;29;11611;-86
2022/10/09 06:44:04;;;;;;;;;16.00;16.00;;;;;;;;4821911;29;11614;-83
2022/10/09 06:46:33;;;;;;;;;16.50;16.50;;;;;;;;4823294;29;11610;-88
2022/10/09 06:49:02;;;;;;;;;20.00;19.00;;;;;;;;4812452;29;11584;-92
2022/10/09 06:51:30;;;;;;;;;26.50;20.75;;;;;;;;4831628;29;11692;-86
2022/10/09 06:53:59;;;;;;;;;25.25;23.00;;;;;;;;4839990;29;11597;-85
2022/10/09 06:56:29;;;;;;;;;40.00;35.00;;;;;;;;4844100;29;11626;-84
2022/10/09 06:58:59;;;;;;;;;33.75;30.25;;;;;;;;4831390;29;11654;-86
2022/10/09 07:01:29;;;;;;;;;27.00;23.25;;;;;;;;4834568;29;11570;-85
2022/10/09 07:03:58;;;;;;;;;27.50;27.50;;;;;;;;4836175;29;11685;-87
2022/10/09 07:06:28;;;;;;;;;27.50;22.50;;;;;;;;4833092;29;11630;-82
2022/10/09 07:08:59;;;;;;;;;33.00;27.50;;;;;;;;4832189;29;11625;-81
2022/10/09 07:11:28;;;;;;;;;26.00;22.50;;;;;;;;4839025;29;11613;-79
2022/10/09 07:14:03;;;;;;;;;27.75;27.75;;;;;;;;4839401;29;11632;-79
2022/10/09 07:16:32;;;;;;;;;28.25;28.25;;;;;;;;4831159;29;11622;-81
2022/10/09 07:19:02;;;;;;;;;26.75;26.25;;;;;;;;4825779;29;11747;-80
2022/10/09 07:21:31;;;;;;;;;27.75;25.75;;;;;;;;4835983;29;11799;-85
2022/10/09 07:24:00;;;;;;;;;24.50;24.50;;;;;;;;4834376;29;11611;-78
2022/10/09 07:26:29;;;;;;;;;22.00;22.00;;;;;;;;4833886;29;11609;-81
2022/10/09 07:28:57;;;;;;;;;29.25;25.50;;;;;;;;4836346;29;11567;-81
2022/10/09 07:31:25;;;;;;;;;19.50;19.50;;;;;;;;4832652;29;11607;-78
2022/10/09 07:33:55;;;;;;;;;19.00;18.75;;;;;;;;4818834;29;11599;-88
2022/10/09 07:36:22;;;;;;;;;24.00;22.25;;;;;;;;4835126;29;11627;-89
2022/10/09 07:38:52;;;;;;;;;14.25;14.25;;;;;;;;4837087;29;11644;-81
2022/10/09 07:41:20;;;;;;;;;27.00;20.50;;;;;;;;4831017;29;11588;-78
2022/10/09 07:43:48;;;;;;;;;25.25;24.50;;;;;;;;4828329;29;11616;-77
2022/10/09 07:46:16;;;;;;;;;28.00;25.25;;;;;;;;4835421;29;11596;-79
2022/10/09 07:48:44;;;;;;;;;19.75;19.00;;;;;;;;4834574;29;11654;-79
2022/10/09 07:51:14;;;;;;;;;28.25;26.50;;;;;;;;4822256;29;11594;-78
2022/10/09 07:53:41;;;;;;;;;35.25;26.50;;;;;;;;4837663;29;11609;-80
2022/10/09 07:56:14;;;;;;;;;21.50;20.50;;;;;;;;4841912;29;12440;-80
2022/10/09 07:58:41;;;;;;;;;22.75;22.00;;;;;;;;4843489;29;11529;-79
2022/10/09 08:01:09;;;;;;;;;23.75;22.00;;;;;;;;4832710;29;12078;-79
2022/10/09 08:03:37;;;;;;;;;21.50;20.00;;;;;;;;4832164;29;11545;-79
2022/10/09 08:06:05;;;;;;;;;20.75;18.00;;;;;;;;4833080;29;11615;-80
2022/10/09 08:08:32;;;;;;;;;15.75;15.75;;;;;;;;4836961;29;11559;-83
2022/10/09 08:11:00;;;;;;;;;15.25;14.75;;;;;;;;4829386;29;11587;-79
2022/10/09 08:13:29;;;;;;;;;16.25;15.75;;;;;;;;4830559;29;11556;-82
2022/10/09 08:15:59;;;;;;;;;26.00;24.25;;;;;;;;4832223;29;11551;-76
2022/10/09 08:18:26;;;;;;;;;18.00;18.00;;;;;;;;4830912;29;11609;-75
2022/10/09 08:20:58;;;;;;;;;12.50;11.75;;;;;;;;4834712;29;11531;-75
2022/10/09 08:23:25;;;;;;;;;13.50;13.50;;;;;;;;4844918;29;11423;-78
2022/10/09 08:25:53;;;;;;;;;10.00;9.00;;;;;;;;4832689;29;11036;-77
2022/10/09 08:28:20;;;;;;;;;13.50;13.50;;;;;;;;4840203;29;11989;-77
2022/10/09 08:30:50;;;;;;;;;8.50;7.00;;;;;;;;4819202;29;10849;-76
2022/10/09 08:33:20;;;;;;;;;15.75;15.75;;;;;;;;4826998;29;10843;-76
2022/10/09 08:35:48;;;;;;;;;12.25;12.25;;;;;;;;4817268;29;11626;-77
2022/10/09 08:38:15;;;;;;;;;11.50;10.25;;;;;;;;4815657;29;10904;-77
2022/10/09 08:40:48;;;;;;;;;16.00;16.00;;;;;;;;4828444;29;10642;-77
2022/10/09 08:43:19;;;;;;;;;13.00;13.00;;;;;;;;4832025;29;10635;-76
2022/10/09 08:45:49;;;;;;;;;16.75;13.75;;;;;;;;4829442;29;10497;-76
2022/10/09 08:48:20;;;;;;;;;10.50;10.00;;;;;;;;4831260;29;10328;-74
2022/10/09 08:50:52;;;;;;;;;11.50;11.00;;;;;;;;4825129;29;10128;-77
2022/10/09 08:53:30;;;;;;;;;8.75;7.25;;;;;;;;4840516;29;10120;-78
2022/10/09 08:55:59;;;;;;;;;7.00;7.00;;;;;;;;4840323;29;9952;-77
2022/10/09 08:58:30;;;;;;;;;9.00;9.00;;;;;;;;4832694;29;9961;-78
2022/10/09 09:01:03;;;;;;;;;6.00;6.00;;;;;;;;4832498;29;9667;-77
2022/10/09 09:03:46;;;;;;;;;9.75;8.25;;;;;;;;4825299;29;9744;-77
2022/10/09 09:06:17;;;;;;;;;5.75;5.75;;;;;;;;4833012;29;9553;-78
2022/10/09 09:08:51;;;;;;;;;9.75;9.75;;;;;;;;4837069;29;9511;-78
2022/10/09 09:11:25;;;;;;;;;6.67;6.67;;;;;;;;4832364;29;9578;-79
2022/10/09 09:14:00;;;;;;;;;5.00;5.00;;;;;;;;4836951;29;10047;-80
2022/10/09 09:16:38;;;;;;;;;7.33;7.33;;;;;;;;4831896;29;9302;-79
2022/10/09 09:19:19;;;;;;;;;5.67;5.67;;;;;;;;4835212;29;9143;-79
2022/10/09 09:21:54;;;;;;;;;5.67;4.67;;;;;;;;4827262;29;9035;-79
2022/10/09 09:24:24;;;;;;;;;5.50;5.00;;;;;;;;4830928;29;9039;-79
2022/10/09 09:26:55;;;;;;;;;6.50;6.50;;;;;;;;4832790;29;8904;-78
2022/10/09 09:29:24;;;;;;;;;6.00;4.00;;;;;;;;4834290;29;8856;-79
2022/10/09 09:31:54;;;;;;;;;6.00;6.00;;;;;;;;4829054;29;8844;-79
2022/10/09 09:34:25;;;;;;;;;7.00;5.00;;;;;;;;4834810;29;8990;-79
2022/10/09 09:36:55;;;;;;;;;10.75;8.75;;;;;;;;4832816;29;8933;-78
2022/10/09 09:39:24;;;;;;;;;15.50;13.75;;;;;;;;4841146;29;8887;-80
2022/10/09 09:41:51;;;;;;;;;5.25;4.75;;;;;;;;4838457;29;8922;-78
2022/10/09 09:44:19;;;;;;;;;3.25;3.25;;;;;;;;4838352;29;8916;-79
2022/10/09 09:46:48;;;;;;;;;7.75;5.00;;;;;;;;4833355;29;8891;-79
2022/10/09 09:49:18;;;;;;;;;5.25;3.50;;;;;;;;4838571;29;8965;-79
2022/10/09 09:51:46;;;;;;;;;6.00;6.00;;;;;;;;4805784;29;8915;-78
2022/10/09 09:54:18;;;;;;;;;6.00;6.00;;;;;;;;4840707;29;8916;-76
2022/10/09 09:56:46;;;;;;;;;5.50;5.50;;;;;;;;4838064;29;8902;-78
2022/10/09 09:59:31;;;;;;;;;6.50;5.50;;;;;;;;4843204;29;8908;-77
2022/10/09 10:02:04;;;;;;;;;7.25;6.00;;;;;;;;4821946;29;8841;-78
2022/10/09 10:04:35;;;;;;;;;6.00;4.75;;;;;;;;4838998;29;8888;-79
2022/10/09 10:07:04;;;;;;;;;6.00;4.00;;;;;;;;4842252;29;9010;-80
2022/10/09 10:09:32;;;;;;;;;5.00;5.00;;;;;;;;4835371;29;9006;-77
2022/10/09 10:12:02;;;;;;;;;4.75;4.75;;;;;;;;4845379;29;8884;-84
2022/10/09 10:14:30;;;;;;;;;3.00;3.00;;;;;;;;4845583;29;9006;-77
2022/10/09 10:16:59;;;;;;;;;4.25;4.25;;;;;;;;4832217;29;8934;-77
2022/10/09 10:19:28;;;;;;;;;4.25;4.25;;;;;;;;4832389;29;9824;-78
2022/10/09 10:22:02;;;;;;;;;5.00;5.00;;;;;;;;4822375;29;9030;-79
2022/10/09 10:24:34;;;;;;;;;5.00;5.00;;;;;;;;4833300;29;8912;-77
2022/10/09 10:27:05;;;;;;;;;6.75;6.00;;;;;;;;4844513;29;8884;-78
2022/10/09 10:29:35;;;;;;;;;6.75;6.75;;;;;;;;4843360;29;8902;-79
2022/10/09 10:32:09;;;;;;;;;3.00;3.00;;;;;;;;4835189;29;8847;-78
2022/10/09 10:34:40;;;;;;;;;8.00;8.00;;;;;;;;4832125;29;9404;-77
2022/10/09 10:37:24;;;;;;;;;3.00;3.00;;;;;;;;4836024;29;9508;-77
2022/10/09 10:39:57;;;;;;;;;3.00;3.00;;;;;;;;4817117;29;8892;-76
2022/10/09 10:42:28;;;;;;;;;3.40;3.40;;;;;;;;4831852;29;8894;-78
2022/10/09 10:45:00;;;;;;;;;3.80;3.20;;;;;;;;4840427;29;8904;-76
2022/10/09 10:47:31;;;;;;;;;4.00;2.40;;;;;;;;4836925;29;8872;-78
2022/10/09 10:50:14;;;;;;;;;2.60;2.60;;;;;;;;4833863;29;8908;-76
2022/10/09 10:52:55;;;;;;;;;2.20;2.20;;;;;;;;4838884;29;8917;-88
2022/10/09 10:55:36;;;;;;;;;2.00;2.00;;;;;;;;4822158;29;8886;-81
2022/10/09 10:58:16;;;;;;;;;4.00;3.20;;;;;;;;4848354;29;8900;-81
2022/10/09 11:00:51;;;;;;;;;3.60;3.60;;;;;;;;4836661;29;9684;-77
2022/10/09 11:03:33;;;;;;;;;3.00;3.00;;;;;;;;4846543;29;8904;-89
2022/10/09 11:06:07;;;;;;;;;4.00;3.00;;;;;;;;4819490;29;8980;-85
2022/10/09 11:08:56;;;;;;;;;3.80;3.80;;;;;;;;4832992;29;8921;-84
2022/10/09 11:11:32;;;;;;;;;4.20;2.60;;;;;;;;4829637;29;8900;-84
2022/10/09 11:14:08;;;;;;;;;5.20;5.20;;;;;;;;4835711;29;8879;-86
2022/10/09 11:16:44;;;;;;;;;3.80;3.40;;;;;;;;4831530;29;8888;-85
2022/10/09 11:19:26;;;;;;;;;4.60;4.60;;;;;;;;4818952;29;9599;-82
2022/10/09 11:22:00;;;;;;;;;5.60;5.40;;;;;;;;4822640;29;8892;-80
2022/10/09 11:24:50;;;;;;;;;3.00;3.00;;;;;;;;4833025;29;8888;-82
2022/10/09 11:27:20;;;;;;;;;2.00;2.00;;;;;;;;4839075;29;8886;-79
2022/10/09 11:29:51;;;;;;;;;3.20;3.20;;;;;;;;4839663;29;8891;-83
2022/10/09 11:32:23;;;;;;;;;2.20;2.20;;;;;;;;4832568;29;8844;-82
2022/10/09 11:34:55;;;;;;;;;3.40;1.80;;;;;;;;4832740;29;8916;-81
2022/10/09 11:37:25;;;;;;;;;2.60;2.60;;;;;;;;4831640;29;8895;-81
2022/10/09 11:39:55;;;;;;;;;3.00;3.00;;;;;;;;4830909;29;8919;-81
2022/10/09 11:42:24;;;;;;;;;3.00;3.00;;;;;;;;4837025;29;8893;-82
2022/10/09 11:45:00;;;;;;;;;3.00;3.00;;;;;;;;4831457;29;8899;-81
2022/10/09 11:47:31;;;;;;;;;2.00;2.00;;;;;;;;4831568;29;8891;-79
2022/10/09 11:50:27;;;;;;;;;3.00;3.00;;;;;;;;4834357;29;8884;-82
2022/10/09 11:52:58;;;;;;;;;2.00;2.00;;;;;;;;4829308;29;8888;-81
2022/10/09 11:55:30;;;;;;;;;2.00;2.00;;;;;;;;4843116;29;8916;-77
2022/10/09 11:58:13;;;;;;;;;2.80;2.80;;;;;;;;4835103;29;8898;-80
2022/10/09 12:00:42;;;;;;;;;5.80;2.40;;;;;;;;4828831;29;8816;-79
2022/10/09 12:03:23;;;;;;;;;3.00;3.00;;;;;;;;4829834;29;8915;-80
2022/10/09 12:05:51;;;;;;;;;2.40;2.40;;;;;;;;4833165;29;8911;-80
2022/10/09 12:08:26;;;;;;;;;2.00;2.00;;;;;;;;4813344;29;8868;-79
2022/10/09 12:10:57;;;;;;;;;2.20;2.00;;;;;;;;4839881;29;8984;-84
2022/10/09 12:13:36;;;;;;;;;0.80;0.00;;;;;;;;4835942;29;8914;-84
2022/10/09 12:16:04;;;;;;;;;0.00;0.00;;;;;;;;4831793;29;8896;-79
2022/10/09 12:18:33;;;;;;;;;3.20;3.20;;;;;;;;4830943;29;8934;-79
2022/10/09 12:21:03;;;;;;;;;2.40;2.00;;;;;;;;4829132;29;8928;-80
2022/10/09 12:23:34;;;;;;;;;0.80;0.80;;;;;;;;4833684;29;8894;-82
2022/10/09 12:26:03;;;;;;;;;2.00;2.00;;;;;;;;4830501;29;8907;-83
2022/10/09 12:28:36;;;;;;;;;3.00;2.00;;;;;;;;4841943;29;8909;-80
2022/10/09 12:31:07;;;;;;;;;3.00;3.00;;;;;;;;4837611;29;8833;-78
2022/10/09 12:33:38;;;;;;;;;2.40;2.40;;;;;;;;4833717;29;9050;-79
2022/10/09 12:36:11;;;;;;;;;1.80;1.80;;;;;;;;4838329;29;9302;-77
2022/10/09 12:38:38;;;;;;;;;0.80;0.80;;;;;;;;4835651;29;8914;-78
2022/10/09 12:41:13;;;;;;;;;2.00;2.00;;;;;;;;4838942;29;8892;-79
2022/10/09 12:43:45;;;;;;;;;1.60;1.60;;;;;;;;4835055;29;9007;-77
2022/10/09 12:46:12;;;;;;;;;1.60;1.00;;;;;;;;4834022;29;9752;-79
2022/10/09 12:48:42;;;;;;;;;2.00;2.00;;;;;;;;4834865;29;8901;-75
2022/10/09 12:51:16;;;;;;;;;2.00;2.00;;;;;;;;4827365;29;8928;-76
2022/10/09 12:53:47;;;;;;;;;1.60;1.60;;;;;;;;4837012;29;8899;-75
2022/10/09 12:56:21;;;;;;;;;1.00;0.80;;;;;;;;4824854;29;8896;-76
2022/10/09 12:58:48;;;;;;;;;2.00;2.00;;;;;;;;4842676;29;8892;-78
2022/10/09 13:01:17;;;;;;;;;2.00;2.00;;;;;;;;4837610;29;8840;-76
2022/10/09 13:03:54;;;;;;;;;2.00;2.00;;;;;;;;4837942;29;8888;-76
2022/10/09 13:06:24;;;;;;;;;2.40;2.40;;;;;;;;4836471;29;8894;-74
2022/10/09 13:08:54;;;;;;;;;1.80;1.80;;;;;;;;4833389;29;8922;-76
2022/10/09 13:11:28;;;;;;;;;2.80;2.80;;;;;;;;4818492;29;8910;-74
2022/10/09 13:13:56;;;;;;;;;1.80;1.80;;;;;;;;4826918;29;8898;-74
2022/10/09 13:16:24;;;;;;;;;3.40;2.20;;;;;;;;4839468;29;9015;-75
2022/10/09 13:18:58;;;;;;;;;1.00;1.00;;;;;;;;4846749;29;8908;-74
2022/10/09 13:21:28;;;;;;;;;1.80;1.80;;;;;;;;4833991;29;9595;-74
2022/10/09 13:23:55;;;;;;;;;1.80;1.80;;;;;;;;4845527;29;9001;-73
2022/10/09 13:26:27;;;;;;;;;1.20;1.20;;;;;;;;4838449;29;8888;-74
2022/10/09 13:28:55;;;;;;;;;2.00;2.00;;;;;;;;4842000;29;8903;-76
2022/10/09 13:31:23;;;;;;;;;1.80;1.80;;;;;;;;4843204;29;8824;-80
2022/10/09 13:33:51;;;;;;;;;3.20;1.80;;;;;;;;4836074;29;8892;-79
2022/10/09 13:36:19;;;;;;;;;1.00;1.00;;;;;;;;4838882;29;8892;-80
2022/10/09 13:38:47;;;;;;;;;2.80;1.00;;;;;;;;4844729;29;8884;-78
2022/10/09 13:41:18;;;;;;;;;3.80;2.20;;;;;;;;4835779;29;8884;-83
2022/10/09 13:43:47;;;;;;;;;3.80;1.80;;;;;;;;4834918;29;8877;-79
2022/10/09 13:46:15;;;;;;;;;1.80;1.80;;;;;;;;4848229;29;8886;-85
2022/10/09 13:48:42;;;;;;;;;2.20;1.60;;;;;;;;4818217;29;8900;-81
2022/10/09 13:51:10;;;;;;;;;3.20;2.00;;;;;;;;4834699;29;8920;-84
2022/10/09 13:53:37;;;;;;;;;1.40;1.40;;;;;;;;4828348;29;8892;-79
2022/10/09 13:56:06;;;;;;;;;0.00;0.00;;;;;;;;4838015;29;8966;-83
2022/10/09 13:58:34;;;;;;;;;3.40;2.00;;;;;;;;4831374;29;8910;-83
2022/10/09 14:01:03;;;;;;;;;2.40;2.40;;;;;;;;4824256;29;8833;-79
2022/10/09 14:03:30;;;;;;;;;1.00;1.00;;;;;;;;4839614;29;8899;-83
2022/10/09 14:05:59;;;;;;;;;1.40;1.40;;;;;;;;4837477;29;8908;-82
2022/10/09 14:08:26;;;;;;;;;1.80;1.40;;;;;;;;4841908;29;8910;-85
2022/10/09 14:10:53;;;;;;;;;3.00;3.00;;;;;;;;4845105;29;8953;-82
2022/10/09 14:13:21;;;;;;;;;1.60;1.60;;;;;;;;4827067;29;8880;-83
2022/10/09 14:15:48;;;;;;;;;0.80;0.80;;;;;;;;4836732;29;8852;-82
2022/10/09 14:18:16;;;;;;;;;1.00;1.00;;;;;;;;4833858;29;8992;-82
2022/10/09 14:20:44;;;;;;;;;1.60;1.60;;;;;;;;4835551;29;9026;-85
2022/10/09 14:23:12;;;;;;;;;2.00;2.00;;;;;;;;4823456;29;8902;-84
2022/10/09 14:25:40;;;;;;;;;1.00;1.00;;;;;;;;4835885;29;8911;-82
2022/10/09 14:28:07;;;;;;;;;1.80;1.80;;;;;;;;4836510;29;8964;-84
2022/10/09 14:30:34;;;;;;;;;3.00;1.60;;;;;;;;4826850;29;8828;-84
2022/10/09 14:33:02;;;;;;;;;1.00;1.00;;;;;;;;4837940;29;8896;-84
2022/10/09 14:35:31;;;;;;;;;2.00;2.00;;;;;;;;4843589;29;8893;-82
2022/10/09 14:37:59;;;;;;;;;2.00;2.00;;;;;;;;4849156;29;8912;-84
2022/10/09 14:40:26;;;;;;;;;0.40;0.40;;;;;;;;4847897;29;9625;-82
2022/10/09 14:42:54;;;;;;;;;2.80;2.80;;;;;;;;4837076;29;8839;-82
2022/10/09 14:45:33;;;;;;;;;1.00;1.00;;;;;;;;4823225;29;8896;-82
2022/10/09 14:48:00;;;;;;;;;2.00;2.00;;;;;;;;4823193;29;9550;-76
2022/10/09 14:50:27;;;;;;;;;3.00;3.00;;;;;;;;4843304;29;8910;-83
2022/10/09 14:52:56;;;;;;;;;1.60;1.40;;;;;;;;4836260;29;8886;-79